Time;durP1;ratioP1;P1;durP2;ratioP2;P2;SDS_P1;SDS_P2;PMS_P1;PMS_P2;Temp;Humidity;BMP_temperature;BMP_pressure;BME280_temperature;BME280_humidity;BME280_pressure;Samples;Min_cycle;Max_cycle;Signal;HPM_P1;HPM_P2
2022/08/02 00:00:41;;;;;;;;;;;13.80;99.90;;;;;;4966684;28;20029;-59
2022/08/02 00:03:06;;;;;;;;;;;13.80;99.90;;;;;;4957254;28;19906;-60
2022/08/02 00:05:32;;;;;;;;;;;13.80;99.90;;;;;;4962860;28;19965;-59
2022/08/02 00:07:57;;;;;;;;;;;13.80;99.90;;;;;;4959179;28;19917;-59
2022/08/02 00:10:24;;;;;;;;;;;13.70;99.90;;;;;;4963739;28;20024;-60
2022/08/02 00:12:49;;;;;;;;;;;13.60;99.90;;;;;;4960687;28;19948;-59
2022/08/02 00:15:15;;;;;;;;;;;13.50;99.90;;;;;;4964326;28;19957;-59
2022/08/02 00:17:40;;;;;;;;;;;13.40;99.90;;;;;;4961058;28;19917;-59
2022/08/02 00:20:06;;;;;;;;;;;13.30;99.90;;;;;;4963519;28;19986;-61
2022/08/02 00:22:32;;;;;;;;;;;13.20;99.90;;;;;;4959646;28;20689;-59
2022/08/02 00:24:57;;;;;;;;;;;13.20;99.90;;;;;;4963031;28;20560;-59
2022/08/02 00:27:23;;;;;;;;;;;13.30;99.90;;;;;;4956612;28;19921;-59
2022/08/02 00:29:50;;;;;;;;;;;13.40;99.90;;;;;;4966387;28;19914;-59
2022/08/02 00:32:16;;;;;;;;;;;13.30;99.90;;;;;;4959174;28;20253;-59
2022/08/02 00:34:42;;;;;;;;;;;13.40;99.90;;;;;;4956656;28;20350;-60
2022/08/02 00:37:07;;;;;;;;;;;13.70;99.90;;;;;;4959932;28;19922;-59
2022/08/02 00:39:33;;;;;;;;;;;14.00;99.90;;;;;;4962702;28;19917;-59
2022/08/02 00:41:58;;;;;;;;;;;14.00;99.90;;;;;;4958254;28;19910;-59
2022/08/02 00:44:24;;;;;;;;;;;14.00;99.90;;;;;;4965593;28;19965;-60
2022/08/02 00:46:49;;;;;;;;;;;13.90;99.90;;;;;;4962970;28;20004;-60
2022/08/02 00:49:15;;;;;;;;;;;13.70;99.90;;;;;;4948151;28;19910;-59
2022/08/02 00:51:41;;;;;;;;;;;13.50;99.90;;;;;;4954512;28;19973;-59
2022/08/02 00:54:06;;;;;;;;;;;13.40;99.90;;;;;;4960452;28;20468;-60
2022/08/02 00:56:32;;;;;;;;;;;13.30;99.90;;;;;;4955687;28;20425;-60
2022/08/02 00:58:58;;;;;;;;;;;13.20;99.90;;;;;;4960993;28;19949;-60
2022/08/02 01:01:44;;;;;;;;;;;13.10;99.90;;;;;;4945212;28;19921;-60
2022/08/02 01:04:12;;;;;;;;;;;13.20;99.90;;;;;;4955130;28;19920;-60
2022/08/02 01:06:39;;;;;;;;;;;13.20;99.90;;;;;;4959538;28;20362;-60
2022/08/02 01:09:05;;;;;;;;;;;13.10;99.90;;;;;;4960533;28;19917;-60
2022/08/02 01:11:31;;;;;;;;;;;13.40;99.90;;;;;;4956459;28;20325;-60
2022/08/02 01:14:00;;;;;;;;;;;13.70;99.90;;;;;;4964453;28;19910;-59
2022/08/02 01:16:27;;;;;;;;;;;13.80;99.90;;;;;;4965105;28;20358;-59
2022/08/02 01:18:55;;;;;;;;;;;13.80;99.90;;;;;;4963565;28;19910;-60
2022/08/02 01:21:39;;;;;;;;;;;13.70;99.90;;;;;;4957700;28;19966;-60
2022/08/02 01:24:24;;;;;;;;;;;13.50;99.90;;;;;;4961122;28;20394;-59
2022/08/02 01:26:58;;;;;;;;;;;13.40;99.90;;;;;;4958784;28;19957;-60
2022/08/02 01:29:29;;;;;;;;;;;13.20;99.90;;;;;;4967673;28;19910;-60
2022/08/02 01:31:55;;;;;;;;;;;13.10;99.90;;;;;;4966453;28;19906;-61
2022/08/02 01:34:32;;;;;;;;;;;13.10;99.90;;;;;;4967488;28;20327;-60
2022/08/02 01:37:02;;;;;;;;;;;13.10;99.90;;;;;;4966164;28;19964;-60
2022/08/02 01:39:29;;;;;;;;;;;13.00;99.90;;;;;;4966424;28;20266;-59
2022/08/02 01:41:56;;;;;;;;;;;12.90;99.90;;;;;;4967323;28;19917;-60
2022/08/02 01:44:23;;;;;;;;;;;12.90;99.90;;;;;;4964984;28;20354;-59
2022/08/02 01:46:49;;;;;;;;;;;12.90;99.90;;;;;;4964705;28;20404;-60
2022/08/02 01:49:17;;;;;;;;;;;12.90;99.90;;;;;;4964050;28;19965;-60
2022/08/02 01:54:31;;;;;;;;;;;12.90;99.90;;;;;;4965502;28;19917;-60
2022/08/02 01:56:58;;;;;;;;;;;13.00;99.90;;;;;;4968945;28;19906;-61
2022/08/02 01:59:25;;;;;;;;;;;13.00;99.90;;;;;;4967657;28;19909;-61
2022/08/02 02:01:52;;;;;;;;;;;13.10;99.90;;;;;;4967288;28;19929;-60
2022/08/02 02:04:19;;;;;;;;;;;13.20;99.90;;;;;;4966873;28;19924;-61
2022/08/02 02:06:45;;;;;;;;;;;13.20;99.90;;;;;;4968344;28;19917;-61
2022/08/02 02:09:13;;;;;;;;;;;13.20;99.90;;;;;;4968617;28;19906;-60
2022/08/02 02:11:40;;;;;;;;;;;13.20;99.90;;;;;;4970461;28;19984;-61
2022/08/02 02:14:06;;;;;;;;;;;13.20;99.90;;;;;;4951834;28;19952;-61
2022/08/02 02:16:32;;;;;;;;;;;13.10;99.90;;;;;;4969181;28;19906;-61
2022/08/02 02:19:00;;;;;;;;;;;13.10;99.90;;;;;;4969294;28;20378;-61
2022/08/02 02:21:26;;;;;;;;;;;13.10;99.90;;;;;;4962509;28;19906;-61
2022/08/02 02:23:51;;;;;;;;;;;13.30;99.90;;;;;;4959177;28;19928;-61
2022/08/02 02:26:17;;;;;;;;;;;13.30;99.90;;;;;;4958409;28;20321;-61
2022/08/02 02:28:45;;;;;;;;;;;13.10;99.90;;;;;;4960740;28;19906;-61
2022/08/02 02:31:12;;;;;;;;;;;13.10;99.90;;;;;;4959084;28;19929;-60
2022/08/02 02:34:09;;;;;;;;;;;13.00;99.90;;;;;;4965744;28;19914;-61
2022/08/02 02:36:35;;;;;;;;;;;12.80;99.90;;;;;;4942064;28;20117;-61
2022/08/02 02:39:02;;;;;;;;;;;12.70;99.90;;;;;;4957227;28;19906;-61
2022/08/02 02:41:28;;;;;;;;;;;12.60;99.90;;;;;;4948117;28;19913;-61
2022/08/02 02:43:54;;;;;;;;;;;12.70;99.90;;;;;;4959388;28;19910;-61
2022/08/02 02:46:21;;;;;;;;;;;12.80;99.90;;;;;;4960333;28;19997;-61
2022/08/02 02:48:48;;;;;;;;;;;12.90;99.90;;;;;;4960078;28;20251;-61
2022/08/02 02:51:13;;;;;;;;;;;13.00;99.90;;;;;;4960890;28;19957;-61
2022/08/02 02:53:39;;;;;;;;;;;13.10;99.90;;;;;;4962674;28;19914;-61
2022/08/02 02:56:05;;;;;;;;;;;13.10;99.90;;;;;;4956451;28;19965;-61
2022/08/02 02:58:31;;;;;;;;;;;13.00;99.90;;;;;;4956150;28;20375;-61
2022/08/02 03:03:42;;;;;;;;;;;12.80;99.90;;;;;;4961615;28;19972;-60
2022/08/02 03:06:08;;;;;;;;;;;13.00;99.90;;;;;;4956165;28;19914;-61
2022/08/02 03:08:34;;;;;;;;;;;13.10;99.90;;;;;;4961520;28;19911;-61
2022/08/02 03:10:59;;;;;;;;;;;13.40;99.90;;;;;;4954708;28;20396;-61
2022/08/02 03:13:25;;;;;;;;;;;13.40;99.90;;;;;;4963760;28;19913;-61
2022/08/02 03:15:52;;;;;;;;;;;13.30;99.90;;;;;;4958874;28;19910;-61
2022/08/02 03:18:29;;;;;;;;;;;13.30;99.90;;;;;;4957855;28;19910;-61
2022/08/02 03:21:02;;;;;;;;;;;13.20;99.90;;;;;;4959210;28;19906;-61
2022/08/02 03:23:28;;;;;;;;;;;13.20;99.90;;;;;;4959312;28;19922;-61
2022/08/02 03:25:53;;;;;;;;;;;13.20;99.90;;;;;;4963248;28;19918;-61
2022/08/02 03:28:19;;;;;;;;;;;13.20;99.90;;;;;;4957046;28;19961;-61
2022/08/02 03:30:44;;;;;;;;;;;13.20;99.90;;;;;;4958558;28;20330;-61
2022/08/02 03:33:10;;;;;;;;;;;13.10;99.90;;;;;;4965184;28;19993;-61
2022/08/02 03:35:36;;;;;;;;;;;13.10;99.90;;;;;;4960093;28;19925;-61
2022/08/02 03:38:02;;;;;;;;;;;13.00;99.90;;;;;;4944468;28;19910;-61
2022/08/02 03:40:28;;;;;;;;;;;12.80;99.90;;;;;;4959448;28;19953;-61
2022/08/02 03:42:54;;;;;;;;;;;12.70;99.90;;;;;;4941316;28;19910;-61
2022/08/02 03:45:20;;;;;;;;;;;12.60;99.90;;;;;;4962752;28;19910;-61
2022/08/02 03:47:45;;;;;;;;;;;12.60;99.90;;;;;;4960344;28;20277;-61
2022/08/02 03:50:14;;;;;;;;;;;12.70;99.90;;;;;;4961511;28;21500;-61
2022/08/02 03:52:41;;;;;;;;;;;12.90;99.90;;;;;;4958404;28;19910;-60
2022/08/02 03:55:07;;;;;;;;;;;12.90;99.90;;;;;;4959300;28;19911;-61
2022/08/02 03:57:35;;;;;;;;;;;13.00;99.90;;;;;;4954084;28;19910;-62
2022/08/02 04:00:01;;;;;;;;;;;12.90;99.90;;;;;;4957508;28;19909;-61
2022/08/02 04:02:26;;;;;;;;;;;12.80;99.90;;;;;;4944581;28;20060;-61
2022/08/02 04:04:52;;;;;;;;;;;12.80;99.90;;;;;;4957451;28;20406;-62
2022/08/02 04:07:17;;;;;;;;;;;12.80;99.90;;;;;;4958416;28;19914;-61
2022/08/02 04:09:43;;;;;;;;;;;12.90;99.90;;;;;;4956998;28;19912;-61
2022/08/02 04:12:08;;;;;;;;;;;13.00;99.90;;;;;;4964614;28;19910;-60
2022/08/02 04:14:34;;;;;;;;;;;13.20;99.90;;;;;;4963490;28;19926;-60
2022/08/02 04:17:04;;;;;;;;;;;13.10;99.90;;;;;;4960483;28;19910;-61
2022/08/02 04:19:41;;;;;;;;;;;13.20;99.90;;;;;;4960458;28;20286;-61
2022/08/02 04:22:10;;;;;;;;;;;13.20;99.90;;;;;;4962551;28;20326;-60
2022/08/02 04:24:39;;;;;;;;;;;13.30;99.90;;;;;;4960479;28;20025;-61
2022/08/02 04:27:05;;;;;;;;;;;13.20;99.90;;;;;;4955207;28;19914;-61
2022/08/02 04:29:31;;;;;;;;;;;13.40;99.90;;;;;;4962592;28;20027;-61
2022/08/02 04:31:57;;;;;;;;;;;13.40;99.90;;;;;;4954229;28;19941;-60
2022/08/02 04:34:23;;;;;;;;;;;13.50;99.90;;;;;;4954777;28;19953;-61
2022/08/02 04:36:48;;;;;;;;;;;13.60;99.90;;;;;;4938753;28;19932;-61
2022/08/02 04:39:14;;;;;;;;;;;13.60;99.90;;;;;;4950410;28;19918;-61
2022/08/02 04:41:45;;;;;;;;;;;13.60;99.90;;;;;;4949920;28;20374;-60
2022/08/02 04:44:11;;;;;;;;;;;13.60;99.90;;;;;;4952593;28;20278;-62
2022/08/02 04:46:36;;;;;;;;;;;13.60;99.90;;;;;;4957288;28;19906;-61
2022/08/02 04:49:02;;;;;;;;;;;13.60;99.90;;;;;;4961789;28;19907;-61
2022/08/02 04:51:27;;;;;;;;;;;13.70;99.90;;;;;;4943879;29;20374;-61
2022/08/02 04:53:53;;;;;;;;;;;13.70;99.90;;;;;;4966350;28;19937;-61
2022/08/02 04:56:19;;;;;;;;;;;13.80;99.90;;;;;;4958523;28;19911;-61
2022/08/02 04:58:44;;;;;;;;;;;13.90;99.90;;;;;;4954746;28;20270;-61
2022/08/02 05:01:09;;;;;;;;;;;13.90;99.90;;;;;;4954644;28;19952;-61
2022/08/02 05:03:35;;;;;;;;;;;14.10;99.90;;;;;;4953984;28;19914;-61
2022/08/02 05:06:01;;;;;;;;;;;14.30;99.90;;;;;;4953139;28;19922;-61
2022/08/02 05:08:26;;;;;;;;;;;14.30;99.90;;;;;;4939998;28;19998;-62
2022/08/02 05:10:52;;;;;;;;;;;14.30;99.90;;;;;;4958382;28;19933;-61
2022/08/02 05:13:17;;;;;;;;;;;14.40;99.90;;;;;;4962213;28;19906;-62
2022/08/02 05:15:43;;;;;;;;;;;14.40;99.90;;;;;;4954124;28;21323;-61
2022/08/02 05:18:08;;;;;;;;;;;14.50;99.90;;;;;;4952101;28;20357;-62
2022/08/02 05:20:34;;;;;;;;;;;14.70;99.90;;;;;;4957810;28;19910;-61
2022/08/02 05:22:59;;;;;;;;;;;14.90;99.90;;;;;;4953362;28;19914;-61
2022/08/02 05:25:25;;;;;;;;;;;15.00;99.90;;;;;;4953574;28;19910;-61
2022/08/02 05:27:51;;;;;;;;;;;15.20;99.90;;;;;;4956981;28;20390;-61
2022/08/02 05:30:16;;;;;;;;;;;15.30;99.90;;;;;;4965233;28;19925;-61
2022/08/02 05:32:43;;;;;;;;;;;15.40;99.90;;;;;;4963464;28;20289;-61
2022/08/02 05:35:08;;;;;;;;;;;15.50;99.90;;;;;;4945702;28;19953;-61
2022/08/02 05:37:34;;;;;;;;;;;15.60;99.90;;;;;;4962415;28;20436;-61
2022/08/02 05:40:00;;;;;;;;;;;15.70;99.90;;;;;;4958671;28;20100;-61
2022/08/02 05:42:25;;;;;;;;;;;15.90;99.90;;;;;;4957738;28;19941;-61
2022/08/02 05:44:51;;;;;;;;;;;16.10;99.90;;;;;;4959116;28;19918;-61
2022/08/02 05:47:16;;;;;;;;;;;16.20;99.90;;;;;;4952699;28;19906;-61
2022/08/02 05:49:42;;;;;;;;;;;16.20;99.90;;;;;;4951557;28;19906;-61
2022/08/02 05:52:14;;;;;;;;;;;16.10;99.90;;;;;;4968900;28;19933;-62
2022/08/02 05:54:40;;;;;;;;;;;16.10;99.90;;;;;;4964246;28;20022;-62
2022/08/02 05:57:17;;;;;;;;;;;16.00;99.90;;;;;;4969443;28;19910;-61
2022/08/02 06:00:00;;;;;;;;;;;16.00;99.90;;;;;;4964446;28;19907;-61
2022/08/02 06:02:28;;;;;;;;;;;16.10;99.90;;;;;;4964183;28;19916;-61
2022/08/02 06:04:57;;;;;;;;;;;16.30;99.90;;;;;;4967826;28;19918;-61
2022/08/02 06:07:23;;;;;;;;;;;16.40;99.90;;;;;;4964694;28;19924;-61
2022/08/02 06:09:49;;;;;;;;;;;16.50;99.90;;;;;;4970195;28;20571;-61
2022/08/02 06:12:16;;;;;;;;;;;16.70;99.90;;;;;;4969867;28;19980;-61
2022/08/02 06:14:41;;;;;;;;;;;16.80;99.90;;;;;;4962881;28;19974;-61
2022/08/02 06:17:07;;;;;;;;;;;17.00;99.90;;;;;;4949905;28;19906;-61
2022/08/02 06:19:35;;;;;;;;;;;17.10;99.90;;;;;;4965556;28;19914;-61
2022/08/02 06:22:14;;;;;;;;;;;17.30;99.90;;;;;;4959480;28;19916;-61
2022/08/02 06:24:49;;;;;;;;;;;17.40;99.90;;;;;;4963479;28;19918;-61
2022/08/02 06:27:14;;;;;;;;;;;17.50;99.90;;;;;;4959415;28;20098;-61
2022/08/02 06:29:41;;;;;;;;;;;17.60;99.90;;;;;;4962875;28;19973;-62
2022/08/02 06:32:07;;;;;;;;;;;17.70;99.90;;;;;;4959089;28;19906;-61
2022/08/02 06:34:37;;;;;;;;;;;17.90;99.90;;;;;;4966050;28;19918;-62
2022/08/02 06:37:11;;;;;;;;;;;18.10;99.90;;;;;;4961794;28;20065;-61
2022/08/02 06:39:50;;;;;;;;;;;18.20;99.90;;;;;;4945555;28;19997;-62
2022/08/02 06:42:19;;;;;;;;;;;18.30;99.90;;;;;;4944757;29;19910;-61
2022/08/02 06:44:44;;;;;;;;;;;18.40;99.90;;;;;;4960949;28;19996;-61
2022/08/02 06:47:10;;;;;;;;;;;18.60;99.90;;;;;;4963564;28;20342;-61
2022/08/02 06:49:35;;;;;;;;;;;18.70;99.90;;;;;;4961174;28;20378;-61
2022/08/02 06:52:02;;;;;;;;;;;18.80;99.90;;;;;;4950748;28;19914;-61
2022/08/02 06:54:27;;;;;;;;;;;18.90;99.90;;;;;;4959792;28;19906;-61
2022/08/02 06:56:53;;;;;;;;;;;19.10;99.90;;;;;;4959963;28;19917;-61
2022/08/02 06:59:18;;;;;;;;;;;19.20;99.90;;;;;;4946974;29;19907;-61
2022/08/02 07:01:44;;;;;;;;;;;19.30;99.90;;;;;;4950295;28;20376;-61
2022/08/02 07:04:09;;;;;;;;;;;19.30;99.90;;;;;;4957119;28;19983;-62
2022/08/02 07:06:35;;;;;;;;;;;19.30;99.90;;;;;;4960025;28;19921;-62
2022/08/02 07:09:00;;;;;;;;;;;19.50;99.90;;;;;;4961349;28;19913;-61
2022/08/02 07:11:26;;;;;;;;;;;19.70;99.90;;;;;;4957408;28;19946;-61
2022/08/02 07:13:51;;;;;;;;;;;19.60;99.90;;;;;;4971542;28;19916;-61
2022/08/02 07:16:17;;;;;;;;;;;19.70;99.90;;;;;;4961256;28;19906;-61
2022/08/02 07:18:42;;;;;;;;;;;19.80;99.90;;;;;;4940930;28;19906;-62
2022/08/02 07:21:08;;;;;;;;;;;19.70;99.90;;;;;;4945805;28;19914;-61
2022/08/02 07:23:36;;;;;;;;;;;19.80;99.90;;;;;;4961232;28;19923;-61
2022/08/02 07:26:02;;;;;;;;;;;19.80;99.90;;;;;;4958695;28;19910;-61
2022/08/02 07:28:27;;;;;;;;;;;20.00;99.90;;;;;;4958104;28;20314;-62
2022/08/02 07:30:53;;;;;;;;;;;20.20;99.90;;;;;;4959700;28;19910;-62
2022/08/02 07:33:19;;;;;;;;;;;20.10;99.90;;;;;;4950812;28;20286;-61
2022/08/02 07:35:44;;;;;;;;;;;20.30;99.90;;;;;;4960354;28;19918;-60
2022/08/02 07:38:10;;;;;;;;;;;20.30;99.90;;;;;;4962414;28;20429;-60
2022/08/02 07:40:35;;;;;;;;;;;20.50;99.90;;;;;;4957078;28;20777;-60
2022/08/02 07:43:01;;;;;;;;;;;20.60;99.90;;;;;;4962328;28;19953;-60
2022/08/02 07:45:27;;;;;;;;;;;20.60;99.90;;;;;;4953556;28;19960;-60
2022/08/02 07:47:53;;;;;;;;;;;20.70;99.90;;;;;;4957879;28;19907;-61
2022/08/02 07:50:19;;;;;;;;;;;20.90;99.90;;;;;;4960400;28;20369;-61
2022/08/02 07:52:44;;;;;;;;;;;21.00;99.90;;;;;;4958778;28;19953;-61
2022/08/02 07:55:11;;;;;;;;;;;21.20;99.90;;;;;;4964308;28;19938;-61
2022/08/02 07:57:37;;;;;;;;;;;21.30;99.90;;;;;;4955468;28;19914;-60
2022/08/02 08:00:07;;;;;;;;;;;21.50;99.90;;;;;;4949921;28;19915;-61
2022/08/02 08:02:32;;;;;;;;;;;21.70;99.90;;;;;;4959295;28;19910;-61
2022/08/02 08:04:58;;;;;;;;;;;21.90;99.90;;;;;;4959088;28;20489;-59
2022/08/02 08:07:24;;;;;;;;;;;21.80;99.90;;;;;;4959669;28;19929;-59
2022/08/02 08:09:49;;;;;;;;;;;21.90;99.90;;;;;;4957013;28;19928;-59
2022/08/02 08:12:15;;;;;;;;;;;22.10;99.90;;;;;;4961294;28;20410;-59
2022/08/02 08:14:41;;;;;;;;;;;22.40;99.90;;;;;;4959904;28;19906;-60
2022/08/02 08:17:07;;;;;;;;;;;22.70;99.90;;;;;;4962852;28;19906;-61
2022/08/02 08:19:32;;;;;;;;;;;22.90;99.90;;;;;;4959856;28;19906;-61
2022/08/02 08:22:02;;;;;;;;;;;23.30;99.90;;;;;;4964272;28;20270;-61
2022/08/02 08:24:28;;;;;;;;;;;23.40;99.90;;;;;;4963994;28;19969;-61
2022/08/02 08:26:54;;;;;;;;;;;23.70;99.90;;;;;;4961330;28;19906;-61
2022/08/02 08:29:20;;;;;;;;;;;24.00;99.90;;;;;;4958672;28;19914;-61
2022/08/02 08:31:46;;;;;;;;;;;24.40;99.90;;;;;;4963313;28;19932;-61
2022/08/02 08:34:11;;;;;;;;;;;25.00;99.90;;;;;;4963316;28;19911;-61
2022/08/02 08:36:37;;;;;;;;;;;25.30;98.00;;;;;;4961454;28;19917;-61
2022/08/02 08:39:03;;;;;;;;;;;25.50;98.00;;;;;;4958371;28;19942;-61
2022/08/02 08:41:28;;;;;;;;;;;26.10;97.00;;;;;;4969169;28;19906;-61
2022/08/02 08:43:54;;;;;;;;;;;26.30;96.20;;;;;;4952154;28;20363;-61
2022/08/02 08:48:09;;;;;;;;;;;26.30;95.10;;;;;;5097775;27;19916;-62
2022/08/02 08:50:36;;;;;;;;;;;26.20;95.40;;;;;;5093178;28;19918;-63
2022/08/02 08:53:05;;;;;;;;;;;25.90;96.30;;;;;;5095983;28;19912;-62
2022/08/02 08:55:31;;;;;;;;;;;26.10;95.80;;;;;;5092732;28;19908;-62
2022/08/02 08:57:58;;;;;;;;;;;26.40;96.10;;;;;;5093192;28;19908;-60
2022/08/02 09:00:24;;;;;;;;;;;26.20;95.70;;;;;;5091167;28;20310;-60
2022/08/02 09:02:49;;;;;;;;;;;26.80;95.80;;;;;;5092919;28;19996;-60
2022/08/02 09:05:15;;;;;;;;;;;27.20;95.60;;;;;;5091596;28;19908;-60
2022/08/02 09:07:43;;;;;;;;;;;27.40;93.50;;;;;;5089957;28;20293;-60
2022/08/02 09:10:28;;;;;;;;;;;27.40;93.20;;;;;;5094123;28;19912;-61
2022/08/02 09:13:09;;;;;;;;;;;27.40;93.90;;;;;;5080799;28;20107;-61
2022/08/02 09:15:35;;;;;;;;;;;27.50;92.50;;;;;;5091993;28;19958;-61
2022/08/02 09:18:02;;;;;;;;;;;27.60;91.80;;;;;;5092836;28;20014;-60
2022/08/02 09:20:27;;;;;;;;;;;27.10;92.00;;;;;;5091797;28;19923;-60
2022/08/02 09:23:09;;;;;;;;;;;26.70;92.90;;;;;;5094006;28;19912;-60
2022/08/02 09:25:35;;;;;;;;;;;26.90;92.40;;;;;;5120051;27;19977;-60
2022/08/02 09:28:02;;;;;;;;;;;27.20;91.30;;;;;;5090270;28;19908;-60
2022/08/02 09:30:27;;;;;;;;;;;27.40;91.10;;;;;;5090105;28;19912;-60
2022/08/02 09:32:53;;;;;;;;;;;27.60;92.00;;;;;;5092916;28;19977;-60
2022/08/02 09:35:36;;;;;;;;;;;27.80;90.50;;;;;;5086244;28;20340;-60
2022/08/02 09:38:07;;;;;;;;;;;27.50;90.10;;;;;;5090615;28;19915;-60
2022/08/02 09:40:40;;;;;;;;;;;27.50;90.60;;;;;;5091636;28;19912;-60
2022/08/02 09:43:06;;;;;;;;;;;27.40;90.40;;;;;;5086617;28;20332;-60
2022/08/02 09:45:36;;;;;;;;;;;27.60;90.30;;;;;;5090298;28;19918;-60
2022/08/02 09:48:11;;;;;;;;;;;27.50;89.70;;;;;;5089961;28;20389;-61
2022/08/02 09:50:37;;;;;;;;;;;28.00;90.30;;;;;;5093389;28;19981;-61
2022/08/02 09:53:03;;;;;;;;;;;28.60;88.50;;;;;;5090710;28;19923;-61
2022/08/02 09:55:29;;;;;;;;;;;28.70;89.00;;;;;;5083741;28;19916;-61
2022/08/02 09:57:54;;;;;;;;;;;28.90;86.90;;;;;;5083126;28;19912;-60
2022/08/02 10:00:20;;;;;;;;;;;29.00;85.20;;;;;;5072409;28;19909;-61
2022/08/02 10:03:08;;;;;;;;;;;28.50;85.80;;;;;;5076704;28;20412;-60
2022/08/02 10:05:48;;;;;;;;;;;28.50;87.90;;;;;;5071945;28;20634;-61
2022/08/02 10:08:13;;;;;;;;;;;28.90;85.70;;;;;;5077727;28;20302;-61
2022/08/02 10:10:40;;;;;;;;;;;28.70;86.60;;;;;;5073892;28;19908;-60
2022/08/02 10:13:05;;;;;;;;;;;28.70;85.90;;;;;;5075309;28;20007;-60
2022/08/02 10:15:31;;;;;;;;;;;28.60;87.00;;;;;;5075409;28;20078;-61
2022/08/02 10:17:57;;;;;;;;;;;28.80;87.50;;;;;;5076637;28;19916;-61
2022/08/02 10:20:23;;;;;;;;;;;29.30;85.70;;;;;;5075893;28;19965;-60
2022/08/02 10:22:49;;;;;;;;;;;28.70;86.20;;;;;;5072305;28;19931;-61
2022/08/02 10:25:15;;;;;;;;;;;28.80;87.70;;;;;;5070527;28;20401;-61
2022/08/02 10:27:42;;;;;;;;;;;29.40;86.00;;;;;;5077869;28;19916;-61
2022/08/02 10:30:08;;;;;;;;;;;29.30;85.40;;;;;;5072983;28;20058;-60
2022/08/02 10:32:41;;;;;;;;;;;29.50;84.20;;;;;;5075840;28;19960;-60
2022/08/02 10:35:07;;;;;;;;;;;28.30;87.00;;;;;;5071075;28;19908;-61
2022/08/02 10:37:35;;;;;;;;;;;28.10;88.70;;;;;;5079389;28;19916;-62
2022/08/02 10:40:00;;;;;;;;;;;28.30;89.30;;;;;;5074853;28;19993;-64
2022/08/02 10:42:38;;;;;;;;;;;28.60;90.20;;;;;;5078229;28;20355;-62
2022/08/02 10:45:11;;;;;;;;;;;29.30;87.10;;;;;;5078763;28;19964;-65
2022/08/02 10:47:36;;;;;;;;;;;29.50;84.80;;;;;;5077042;28;20086;-63
2022/08/02 10:50:02;;;;;;;;;;;30.00;85.20;;;;;;5020852;27;20334;-63
2022/08/02 10:52:29;;;;;;;;;;;29.70;83.80;;;;;;5013193;28;19917;-63
2022/08/02 10:54:55;;;;;;;;;;;30.10;84.30;;;;;;5018114;28;19947;-63
2022/08/02 10:57:21;;;;;;;;;;;30.70;82.80;;;;;;5011043;28;19917;-63
2022/08/02 10:59:48;;;;;;;;;;;31.60;82.50;;;;;;5017119;28;19909;-63
2022/08/02 11:02:31;;;;;;;;;;;32.60;80.60;;;;;;5015595;28;19913;-63
2022/08/02 11:04:56;;;;;;;;;;;31.80;78.00;;;;;;5018162;28;19936;-63
2022/08/02 11:07:36;;;;;;;;;;;30.20;80.80;;;;;;5021961;28;19917;-63
2022/08/02 11:10:20;;;;;;;;;;;30.30;81.70;;;;;;5022364;28;20367;-63
2022/08/02 11:13:18;;;;;;;;;;;30.90;80.00;;;;;;5018777;28;19925;-63
2022/08/02 11:15:48;;;;;;;;;;;30.40;80.50;;;;;;5029603;28;19918;-63
2022/08/02 11:18:14;;;;;;;;;;;30.20;83.00;;;;;;5023005;28;20312;-63
2022/08/02 11:20:40;;;;;;;;;;;31.30;82.00;;;;;;5020030;28;19909;-64
2022/08/02 11:23:24;;;;;;;;;;;31.10;78.30;;;;;;5018248;28;19910;-64
2022/08/02 11:25:50;;;;;;;;;;;32.30;78.20;;;;;;5012996;28;19952;-64
2022/08/02 11:28:16;;;;;;;;;;;32.70;74.10;;;;;;5015879;28;19909;-64
2022/08/02 11:30:42;;;;;;;;;;;31.70;75.20;;;;;;5015691;28;19916;-64
2022/08/02 11:33:07;;;;;;;;;;;31.50;77.30;;;;;;5016227;28;20447;-64
2022/08/02 11:35:37;;;;;;;;;;;31.90;77.30;;;;;;5015482;28;20427;-65
2022/08/02 11:38:16;;;;;;;;;;;32.50;75.40;;;;;;5016263;28;20974;-64
2022/08/02 11:40:43;;;;;;;;;;;32.70;73.60;;;;;;5017652;28;19944;-64
2022/08/02 11:43:16;;;;;;;;;;;31.70;74.70;;;;;;5021694;28;19941;-64
2022/08/02 11:45:42;;;;;;;;;;;32.40;75.20;;;;;;5014340;28;20346;-64
2022/08/02 11:48:07;;;;;;;;;;;32.40;74.30;;;;;;5021211;28;19963;-64
2022/08/02 11:50:33;;;;;;;;;;;31.90;74.30;;;;;;5016853;28;19945;-64
2022/08/02 11:52:58;;;;;;;;;;;32.10;74.70;;;;;;5017076;28;20013;-64
2022/08/02 11:55:30;;;;;;;;;;;32.60;74.40;;;;;;5016830;28;20238;-64
2022/08/02 11:57:56;;;;;;;;;;;33.30;73.10;;;;;;5012311;28;20261;-65
2022/08/02 12:00:22;;;;;;;;;;;34.10;73.70;;;;;;5015222;28;20008;-65
2022/08/02 12:02:48;;;;;;;;;;;33.10;72.30;;;;;;5019529;28;19909;-64
2022/08/02 12:05:17;;;;;;;;;;;32.10;73.90;;;;;;5019027;28;20345;-64
2022/08/02 12:07:43;;;;;;;;;;;31.60;74.90;;;;;;5014976;28;19959;-64
2022/08/02 12:10:10;;;;;;;;;;;31.50;74.00;;;;;;5019417;28;19917;-64
2022/08/02 12:12:55;;;;;;;;;;;30.80;75.90;;;;;;5013417;28;20377;-64
2022/08/02 12:15:36;;;;;;;;;;;30.50;76.40;;;;;;5022766;28;19992;-64
2022/08/02 12:20:46;;;;;;;;;;;30.50;77.30;;;;;;5016137;28;19930;-64
2022/08/02 12:23:12;;;;;;;;;;;30.80;78.80;;;;;;5017718;28;19925;-64
2022/08/02 12:25:38;;;;;;;;;;;30.40;77.90;;;;;;5018323;28;20273;-64
2022/08/02 12:28:12;;;;;;;;;;;30.40;79.30;;;;;;5013156;28;19975;-64
2022/08/02 12:30:54;;;;;;;;;;;30.50;77.40;;;;;;5017503;28;19910;-64
2022/08/02 12:33:20;;;;;;;;;;;30.80;79.20;;;;;;5013045;28;19910;-65
2022/08/02 12:35:46;;;;;;;;;;;31.40;78.80;;;;;;5015262;28;19924;-65
2022/08/02 12:38:11;;;;;;;;;;;31.60;75.80;;;;;;5012313;28;19927;-65
2022/08/02 12:40:37;;;;;;;;;;;31.70;76.00;;;;;;5012448;28;19909;-65
2022/08/02 12:43:04;;;;;;;;;;;31.70;76.50;;;;;;5017624;28;20243;-65
2022/08/02 12:45:30;;;;;;;;;;;32.40;76.50;;;;;;5012060;28;19914;-65
2022/08/02 12:47:57;;;;;;;;;;;32.00;76.60;;;;;;5013568;28;19925;-65
2022/08/02 12:50:28;;;;;;;;;;;31.80;75.30;;;;;;5016238;28;20310;-64
2022/08/02 12:53:16;;;;;;;;;;;31.00;76.60;;;;;;5017913;28;20001;-64
2022/08/02 12:55:46;;;;;;;;;;;31.00;76.40;;;;;;5013345;28;19953;-64
2022/08/02 12:58:12;;;;;;;;;;;32.00;75.10;;;;;;5013113;28;19910;-65
2022/08/02 13:00:38;;;;;;;;;;;31.90;75.10;;;;;;5015833;28;19992;-65
2022/08/02 13:03:05;;;;;;;;;;;32.10;75.90;;;;;;5016360;28;20073;-65
2022/08/02 13:05:33;;;;;;;;;;;32.50;75.50;;;;;;5010465;28;20391;-65
2022/08/02 13:07:59;;;;;;;;;;;33.00;74.20;;;;;;5010720;28;19913;-65
2022/08/02 13:10:25;;;;;;;;;;;32.20;74.30;;;;;;5011940;28;19949;-65
2022/08/02 13:12:51;;;;;;;;;;;32.70;74.90;;;;;;5003375;28;20208;-65
2022/08/02 13:15:17;;;;;;;;;;;32.40;72.90;;;;;;5014906;28;19992;-65
2022/08/02 13:17:43;;;;;;;;;;;32.00;74.00;;;;;;5010445;28;19932;-65
2022/08/02 13:20:09;;;;;;;;;;;32.60;73.70;;;;;;5014544;28;19913;-65
2022/08/02 13:22:35;;;;;;;;;;;32.90;73.70;;;;;;5014668;28;20021;-65
2022/08/02 13:25:00;;;;;;;;;;;33.60;71.80;;;;;;5009338;28;19968;-65
2022/08/02 13:27:26;;;;;;;;;;;33.40;70.70;;;;;;5016378;28;20383;-65
2022/08/02 13:29:53;;;;;;;;;;;32.60;71.10;;;;;;5010925;28;20004;-65
2022/08/02 13:32:19;;;;;;;;;;;33.00;72.70;;;;;;5014450;28;19917;-65
2022/08/02 13:34:44;;;;;;;;;;;32.20;72.60;;;;;;5017566;28;20246;-65
2022/08/02 13:37:10;;;;;;;;;;;32.80;73.00;;;;;;5022376;28;19913;-65
2022/08/02 13:39:35;;;;;;;;;;;33.50;70.40;;;;;;5018132;28;20289;-65
2022/08/02 13:42:01;;;;;;;;;;;33.40;70.00;;;;;;5013919;28;20391;-65
2022/08/02 13:44:27;;;;;;;;;;;34.50;70.80;;;;;;5020057;28;20230;-65
2022/08/02 13:46:52;;;;;;;;;;;34.40;68.70;;;;;;5014204;28;19936;-65
2022/08/02 13:49:18;;;;;;;;;;;34.90;70.90;;;;;;5018499;28;19983;-65
2022/08/02 13:51:43;;;;;;;;;;;34.70;68.00;;;;;;5015363;28;19909;-65
2022/08/02 13:54:09;;;;;;;;;;;34.20;70.00;;;;;;5014383;28;19956;-65
2022/08/02 13:56:35;;;;;;;;;;;34.80;69.70;;;;;;5016184;28;20067;-65
2022/08/02 13:59:01;;;;;;;;;;;36.60;68.40;;;;;;5015336;28;19910;-65
2022/08/02 14:01:27;;;;;;;;;;;37.50;66.10;;;;;;5021833;28;19996;-65
2022/08/02 14:03:55;;;;;;;;;;;37.10;65.30;;;;;;5014950;28;19910;-65
2022/08/02 14:06:21;;;;;;;;;;;35.20;66.50;;;;;;5033100;28;19992;-65
2022/08/02 14:08:47;;;;;;;;;;;35.90;67.30;;;;;;5014736;28;19960;-65
2022/08/02 14:11:12;;;;;;;;;;;34.70;67.00;;;;;;5016265;28;19910;-65
2022/08/02 14:13:38;;;;;;;;;;;34.90;67.00;;;;;;5017577;28;19920;-65
2022/08/02 14:16:03;;;;;;;;;;;35.80;66.60;;;;;;5014847;28;20133;-65
2022/08/02 14:18:29;;;;;;;;;;;35.80;66.00;;;;;;5018095;28;19909;-65
2022/08/02 14:20:54;;;;;;;;;;;34.40;66.80;;;;;;5013387;28;19996;-65
2022/08/02 14:23:20;;;;;;;;;;;34.80;66.80;;;;;;5013941;28;19983;-64
2022/08/02 14:25:46;;;;;;;;;;;33.20;68.30;;;;;;5019159;28;19909;-64
2022/08/02 14:28:11;;;;;;;;;;;34.70;68.60;;;;;;5014029;28;19964;-65